sensor_id;sensor_type;location;lat;lon;timestamp;pressure;altitude;pressure_sealevel;temperature;humidity
84667;BME280;74896;42.518;23.712;2024-03-22T00:01:55;92184.50;;;1.59;58.00
84667;BME280;74896;42.518;23.712;2024-03-22T00:04:21;92179.50;;;1.51;61.00
84667;BME280;74896;42.518;23.712;2024-03-22T00:06:48;92180.03;;;1.47;60.59
84667;BME280;74896;42.518;23.712;2024-03-22T00:09:14;92179.69;;;1.50;59.43
84667;BME280;74896;42.518;23.712;2024-03-22T00:11:41;92181.38;;;1.42;60.20
84667;BME280;74896;42.518;23.712;2024-03-22T00:14:07;92173.25;;;1.54;58.76
84667;BME280;74896;42.518;23.712;2024-03-22T00:16:33;92173.34;;;1.46;60.19
84667;BME280;74896;42.518;23.712;2024-03-22T00:18:58;92166.81;;;1.43;59.70
84667;BME280;74896;42.518;23.712;2024-03-22T00:21:24;92164.25;;;1.43;58.60
84667;BME280;74896;42.518;23.712;2024-03-22T00:23:49;92173.19;;;1.32;59.15
84667;BME280;74896;42.518;23.712;2024-03-22T00:26:14;92170.28;;;1.06;60.83
84667;BME280;74896;42.518;23.712;2024-03-22T00:28:40;92167.47;;;1.16;62.30
84667;BME280;74896;42.518;23.712;2024-03-22T00:31:06;92168.63;;;0.99;61.08
84667;BME280;74896;42.518;23.712;2024-03-22T00:33:32;92167.66;;;0.70;64.20
84667;BME280;74896;42.518;23.712;2024-03-22T00:35:57;92177.56;;;0.65;63.55
84667;BME280;74896;42.518;23.712;2024-03-22T00:38:23;92166.31;;;0.75;63.63
84667;BME280;74896;42.518;23.712;2024-03-22T00:40:48;92166.03;;;0.69;63.39
84667;BME280;74896;42.518;23.712;2024-03-22T00:43:14;92182.13;;;0.55;63.71
84667;BME280;74896;42.518;23.712;2024-03-22T00:45:39;92176.69;;;0.58;64.91
84667;BME280;74896;42.518;23.712;2024-03-22T00:48:05;92170.06;;;0.49;64.85
84667;BME280;74896;42.518;23.712;2024-03-22T00:50:30;92176.72;;;0.36;64.17
84667;BME280;74896;42.518;23.712;2024-03-22T00:52:56;92171.69;;;0.28;66.68
84667;BME280;74896;42.518;23.712;2024-03-22T00:55:22;92172.19;;;0.23;66.14
84667;BME280;74896;42.518;23.712;2024-03-22T00:57:47;92170.69;;;0.14;67.84
84667;BME280;74896;42.518;23.712;2024-03-22T01:00:13;92172.19;;;0.09;68.13
84667;BME280;74896;42.518;23.712;2024-03-22T01:02:39;92176.91;;;-0.11;69.00
84667;BME280;74896;42.518;23.712;2024-03-22T01:05:05;92179.75;;;-0.06;70.84
84667;BME280;74896;42.518;23.712;2024-03-22T01:07:30;92169.00;;;0.07;71.23
84667;BME280;74896;42.518;23.712;2024-03-22T01:09:56;92168.59;;;0.18;70.25
84667;BME280;74896;42.518;23.712;2024-03-22T01:12:21;92169.53;;;0.17;71.91
84667;BME280;74896;42.518;23.712;2024-03-22T01:14:46;92169.84;;;0.22;72.49
84667;BME280;74896;42.518;23.712;2024-03-22T01:17:12;92167.56;;;0.27;70.29
84667;BME280;74896;42.518;23.712;2024-03-22T01:19:37;92170.97;;;0.19;70.27
84667;BME280;74896;42.518;23.712;2024-03-22T01:22:02;92169.34;;;0.04;72.98
84667;BME280;74896;42.518;23.712;2024-03-22T01:24:28;92172.50;;;0.06;73.79
84667;BME280;74896;42.518;23.712;2024-03-22T01:26:53;92178.63;;;-0.04;72.30
84667;BME280;74896;42.518;23.712;2024-03-22T01:29:19;92180.22;;;-0.03;72.89
84667;BME280;74896;42.518;23.712;2024-03-22T01:31:44;92181.97;;;-0.03;73.75
84667;BME280;74896;42.518;23.712;2024-03-22T01:34:10;92177.03;;;-0.05;74.81
84667;BME280;74896;42.518;23.712;2024-03-22T01:36:35;92178.69;;;-0.12;73.82
84667;BME280;74896;42.518;23.712;2024-03-22T01:39:00;92186.19;;;-0.18;73.76
84667;BME280;74896;42.518;23.712;2024-03-22T01:41:26;92182.88;;;-0.19;73.59
84667;BME280;74896;42.518;23.712;2024-03-22T01:43:52;92174.75;;;-0.22;74.21
84667;BME280;74896;42.518;23.712;2024-03-22T01:46:17;92173.34;;;-0.25;74.80
84667;BME280;74896;42.518;23.712;2024-03-22T01:48:43;92174.16;;;-0.24;74.91
84667;BME280;74896;42.518;23.712;2024-03-22T01:51:09;92171.59;;;-0.24;74.76
84667;BME280;74896;42.518;23.712;2024-03-22T01:53:35;92173.69;;;-0.28;74.86
84667;BME280;74896;42.518;23.712;2024-03-22T01:56:02;92174.97;;;-0.32;75.64
84667;BME280;74896;42.518;23.712;2024-03-22T01:58:28;92173.56;;;-0.34;75.81
84667;BME280;74896;42.518;23.712;2024-03-22T02:00:54;92176.78;;;-0.40;76.02
84667;BME280;74896;42.518;23.712;2024-03-22T02:03:19;92175.06;;;-0.48;77.00
84667;BME280;74896;42.518;23.712;2024-03-22T02:05:44;92182.59;;;-0.24;77.72
84667;BME280;74896;42.518;23.712;2024-03-22T02:08:10;92178.31;;;-0.31;77.18
84667;BME280;74896;42.518;23.712;2024-03-22T02:10:35;92173.28;;;-0.39;76.50
84667;BME280;74896;42.518;23.712;2024-03-22T02:13:01;92171.56;;;-0.47;77.32
84667;BME280;74896;42.518;23.712;2024-03-22T02:15:26;92163.13;;;-0.47;77.55
84667;BME280;74896;42.518;23.712;2024-03-22T02:17:52;92164.13;;;-0.48;78.21
84667;BME280;74896;42.518;23.712;2024-03-22T02:20:17;92170.69;;;-0.31;78.08
84667;BME280;74896;42.518;23.712;2024-03-22T02:22:42;92179.41;;;-0.26;77.80
84667;BME280;74896;42.518;23.712;2024-03-22T02:25:08;92167.56;;;-0.41;77.77
84667;BME280;74896;42.518;23.712;2024-03-22T02:27:34;92162.53;;;-0.49;77.93
84667;BME280;74896;42.518;23.712;2024-03-22T02:29:59;92166.47;;;-0.47;78.84
84667;BME280;74896;42.518;23.712;2024-03-22T02:32:24;92174.38;;;-0.64;79.75
84667;BME280;74896;42.518;23.712;2024-03-22T02:34:50;92177.56;;;-0.71;80.29
84667;BME280;74896;42.518;23.712;2024-03-22T02:37:15;92178.06;;;-0.75;80.76
84667;BME280;74896;42.518;23.712;2024-03-22T02:39:41;92171.34;;;-0.60;80.59
84667;BME280;74896;42.518;23.712;2024-03-22T02:42:06;92181.84;;;-0.63;80.55
84667;BME280;74896;42.518;23.712;2024-03-22T02:44:32;92176.16;;;-0.73;80.58
84667;BME280;74896;42.518;23.712;2024-03-22T02:46:57;92178.69;;;-0.73;81.27
84667;BME280;74896;42.518;23.712;2024-03-22T02:49:24;92183.56;;;-0.55;81.01
84667;BME280;74896;42.518;23.712;2024-03-22T02:51:50;92185.31;;;-0.56;80.21
84667;BME280;74896;42.518;23.712;2024-03-22T02:54:16;92183.88;;;-0.58;80.09
84667;BME280;74896;42.518;23.712;2024-03-22T02:56:41;92187.88;;;-0.56;80.60
84667;BME280;74896;42.518;23.712;2024-03-22T02:59:06;92183.03;;;-0.82;81.14
84667;BME280;74896;42.518;23.712;2024-03-22T03:01:32;92187.13;;;-1.11;82.25
84667;BME280;74896;42.518;23.712;2024-03-22T03:03:57;92183.31;;;-1.23;83.25
84667;BME280;74896;42.518;23.712;2024-03-22T03:06:22;92185.69;;;-1.22;83.96
84667;BME280;74896;42.518;23.712;2024-03-22T03:08:48;92187.25;;;-0.97;83.91
84667;BME280;74896;42.518;23.712;2024-03-22T03:11:14;92192.94;;;-0.56;82.40
84667;BME280;74896;42.518;23.712;2024-03-22T03:13:40;92190.75;;;-0.36;83.20
84667;BME280;74896;42.518;23.712;2024-03-22T03:16:05;92197.47;;;-0.35;81.52
84667;BME280;74896;42.518;23.712;2024-03-22T03:18:31;92205.34;;;-0.22;81.57
84667;BME280;74896;42.518;23.712;2024-03-22T03:20:56;92207.84;;;-0.14;81.23
84667;BME280;74896;42.518;23.712;2024-03-22T03:23:21;92202.41;;;0.12;79.88
84667;BME280;74896;42.518;23.712;2024-03-22T03:25:47;92210.00;;;-0.03;78.92
84667;BME280;74896;42.518;23.712;2024-03-22T03:28:12;92209.16;;;0.05;78.19
84667;BME280;74896;42.518;23.712;2024-03-22T03:30:38;92200.59;;;-0.03;77.81
84667;BME280;74896;42.518;23.712;2024-03-22T03:33:04;92205.94;;;-0.12;77.70
84667;BME280;74896;42.518;23.712;2024-03-22T03:35:29;92203.13;;;-0.25;78.37
84667;BME280;74896;42.518;23.712;2024-03-22T03:37:55;92201.34;;;-0.17;77.89
84667;BME280;74896;42.518;23.712;2024-03-22T03:40:20;92202.28;;;-0.18;77.58
84667;BME280;74896;42.518;23.712;2024-03-22T03:42:47;92207.91;;;0.00;76.99
84667;BME280;74896;42.518;23.712;2024-03-22T03:45:12;92210.91;;;0.04;77.68
84667;BME280;74896;42.518;23.712;2024-03-22T03:47:38;92212.47;;;0.05;77.89
84667;BME280;74896;42.518;23.712;2024-03-22T03:50:03;92207.91;;;0.00;79.57
84667;BME280;74896;42.518;23.712;2024-03-22T03:52:29;92205.72;;;-0.03;80.79
84667;BME280;74896;42.518;23.712;2024-03-22T03:54:54;92206.63;;;-0.26;80.28
84667;BME280;74896;42.518;23.712;2024-03-22T03:57:19;92213.75;;;-0.44;79.52
84667;BME280;74896;42.518;23.712;2024-03-22T03:59:45;92209.66;;;-0.61;80.59
84667;BME280;74896;42.518;23.712;2024-03-22T04:02:10;92211.53;;;-0.94;82.13
84667;BME280;74896;42.518;23.712;2024-03-22T04:04:36;92208.66;;;-0.83;82.75
84667;BME280;74896;42.518;23.712;2024-03-22T04:07:02;92213.59;;;-0.82;82.77
84667;BME280;74896;42.518;23.712;2024-03-22T04:09:27;92220.06;;;-0.71;82.09
84667;BME280;74896;42.518;23.712;2024-03-22T04:11:52;92209.22;;;-0.65;82.10
84667;BME280;74896;42.518;23.712;2024-03-22T04:14:18;92216.59;;;-0.39;80.51
84667;BME280;74896;42.518;23.712;2024-03-22T04:16:43;92219.38;;;-0.26;79.35
84667;BME280;74896;42.518;23.712;2024-03-22T04:19:09;92218.06;;;-0.22;77.22
84667;BME280;74896;42.518;23.712;2024-03-22T04:21:34;92222.91;;;-0.05;74.43
84667;BME280;74896;42.518;23.712;2024-03-22T04:23:59;92227.78;;;0.05;73.29
84667;BME280;74896;42.518;23.712;2024-03-22T04:26:25;92226.75;;;0.14;72.56
84667;BME280;74896;42.518;23.712;2024-03-22T04:28:50;92229.66;;;0.34;72.00
84667;BME280;74896;42.518;23.712;2024-03-22T04:31:15;92226.88;;;0.43;70.91
84667;BME280;74896;42.518;23.712;2024-03-22T04:33:41;92222.41;;;0.45;71.04
84667;BME280;74896;42.518;23.712;2024-03-22T04:36:07;92220.34;;;0.63;70.19
84667;BME280;74896;42.518;23.712;2024-03-22T04:38:35;92224.50;;;0.79;69.70
84667;BME280;74896;42.518;23.712;2024-03-22T04:41:00;92226.88;;;0.95;68.46
84667;BME280;74896;42.518;23.712;2024-03-22T04:43:27;92225.41;;;1.15;67.42
84667;BME280;74896;42.518;23.712;2024-03-22T04:45:52;92229.09;;;1.42;67.03
84667;BME280;74896;42.518;23.712;2024-03-22T04:48:19;92225.03;;;1.62;66.10
84667;BME280;74896;42.518;23.712;2024-03-22T04:50:46;92229.94;;;1.78;65.29
84667;BME280;74896;42.518;23.712;2024-03-22T04:53:13;92233.44;;;1.92;64.78
84667;BME280;74896;42.518;23.712;2024-03-22T04:55:38;92233.22;;;2.08;64.48
84667;BME280;74896;42.518;23.712;2024-03-22T04:58:03;92234.75;;;2.24;63.83
84667;BME280;74896;42.518;23.712;2024-03-22T05:00:29;92238.41;;;2.36;64.15
84667;BME280;74896;42.518;23.712;2024-03-22T05:02:54;92239.88;;;2.45;63.13
84667;BME280;74896;42.518;23.712;2024-03-22T05:05:20;92233.41;;;2.70;62.23
84667;BME280;74896;42.518;23.712;2024-03-22T05:07:45;92237.38;;;3.00;61.01
84667;BME280;74896;42.518;23.712;2024-03-22T05:10:12;92240.88;;;3.20;60.72
84667;BME280;74896;42.518;23.712;2024-03-22T05:12:37;92241.28;;;3.51;59.39
84667;BME280;74896;42.518;23.712;2024-03-22T05:15:04;92248.06;;;3.66;59.33
84667;BME280;74896;42.518;23.712;2024-03-22T05:17:30;92244.38;;;3.81;58.83
84667;BME280;74896;42.518;23.712;2024-03-22T05:19:57;92245.28;;;4.14;57.23
84667;BME280;74896;42.518;23.712;2024-03-22T05:22:23;92249.50;;;4.35;56.90
84667;BME280;74896;42.518;23.712;2024-03-22T05:24:48;92249.69;;;4.47;56.30
84667;BME280;74896;42.518;23.712;2024-03-22T05:27:13;92247.38;;;4.71;55.94
84667;BME280;74896;42.518;23.712;2024-03-22T05:29:39;92250.56;;;4.73;55.07
84667;BME280;74896;42.518;23.712;2024-03-22T05:32:04;92252.94;;;5.01;54.92
84667;BME280;74896;42.518;23.712;2024-03-22T05:34:31;92257.47;;;5.12;55.03
84667;BME280;74896;42.518;23.712;2024-03-22T05:36:56;92252.94;;;5.34;54.78
84667;BME280;74896;42.518;23.712;2024-03-22T05:39:22;92262.63;;;5.38;55.56
84667;BME280;74896;42.518;23.712;2024-03-22T05:41:47;92265.00;;;5.27;55.45
84667;BME280;74896;42.518;23.712;2024-03-22T05:44:12;92268.16;;;5.29;55.55
84667;BME280;74896;42.518;23.712;2024-03-22T05:46:38;92267.34;;;5.41;54.44
84667;BME280;74896;42.518;23.712;2024-03-22T05:49:03;92269.13;;;5.34;54.93
84667;BME280;74896;42.518;23.712;2024-03-22T05:51:28;92267.50;;;5.59;54.61
84667;BME280;74896;42.518;23.712;2024-03-22T05:53:56;92264.16;;;5.65;54.48
84667;BME280;74896;42.518;23.712;2024-03-22T05:56:22;92263.72;;;5.88;55.83
84667;BME280;74896;42.518;23.712;2024-03-22T05:58:47;92267.25;;;6.00;54.24
84667;BME280;74896;42.518;23.712;2024-03-22T06:01:13;92270.53;;;6.20;55.49
84667;BME280;74896;42.518;23.712;2024-03-22T06:03:38;92277.63;;;6.31;53.59
84667;BME280;74896;42.518;23.712;2024-03-22T06:06:04;92277.44;;;6.33;53.32
84667;BME280;74896;42.518;23.712;2024-03-22T06:08:30;92277.84;;;6.30;53.52
84667;BME280;74896;42.518;23.712;2024-03-22T06:10:59;92285.50;;;6.43;53.84
84667;BME280;74896;42.518;23.712;2024-03-22T06:13:24;92279.47;;;6.62;53.62
84667;BME280;74896;42.518;23.712;2024-03-22T06:15:50;92281.56;;;6.78;52.13
84667;BME280;74896;42.518;23.712;2024-03-22T06:18:16;92288.56;;;6.65;52.98
84667;BME280;74896;42.518;23.712;2024-03-22T06:20:41;92286.00;;;6.65;55.10
84667;BME280;74896;42.518;23.712;2024-03-22T06:23:08;92291.91;;;6.72;52.99
84667;BME280;74896;42.518;23.712;2024-03-22T06:25:33;92290.84;;;6.79;52.25
84667;BME280;74896;42.518;23.712;2024-03-22T06:27:59;92291.09;;;7.02;53.69
84667;BME280;74896;42.518;23.712;2024-03-22T06:30:25;92293.50;;;7.04;51.22
84667;BME280;74896;42.518;23.712;2024-03-22T06:32:50;92293.34;;;7.24;50.41
84667;BME280;74896;42.518;23.712;2024-03-22T06:35:16;92292.22;;;6.82;51.25
84667;BME280;74896;42.518;23.712;2024-03-22T06:37:41;92298.00;;;6.77;51.46
84667;BME280;74896;42.518;23.712;2024-03-22T06:40:07;92297.31;;;6.95;51.30
84667;BME280;74896;42.518;23.712;2024-03-22T06:42:33;92295.78;;;6.87;50.13
84667;BME280;74896;42.518;23.712;2024-03-22T06:44:58;92297.84;;;7.03;51.56
84667;BME280;74896;42.518;23.712;2024-03-22T06:47:23;92299.34;;;7.42;52.59
84667;BME280;74896;42.518;23.712;2024-03-22T06:49:49;92298.41;;;7.61;50.74
84667;BME280;74896;42.518;23.712;2024-03-22T06:52:14;92309.97;;;7.77;50.18
84667;BME280;74896;42.518;23.712;2024-03-22T06:54:40;92303.31;;;7.88;49.00
84667;BME280;74896;42.518;23.712;2024-03-22T06:57:06;92306.72;;;7.63;51.54
84667;BME280;74896;42.518;23.712;2024-03-22T06:59:32;92308.00;;;7.97;48.91
84667;BME280;74896;42.518;23.712;2024-03-22T07:01:57;92307.25;;;7.90;50.33
84667;BME280;74896;42.518;23.712;2024-03-22T07:04:22;92307.34;;;8.02;50.35
84667;BME280;74896;42.518;23.712;2024-03-22T07:06:48;92318.84;;;8.06;47.99
84667;BME280;74896;42.518;23.712;2024-03-22T07:09:13;92310.31;;;8.05;49.47
84667;BME280;74896;42.518;23.712;2024-03-22T07:11:39;92309.22;;;8.13;47.98
84667;BME280;74896;42.518;23.712;2024-03-22T07:14:05;92316.69;;;8.03;47.85
84667;BME280;74896;42.518;23.712;2024-03-22T07:16:30;92316.66;;;8.27;49.49
84667;BME280;74896;42.518;23.712;2024-03-22T07:18:56;92321.66;;;8.40;46.76
84667;BME280;74896;42.518;23.712;2024-03-22T07:21:21;92320.25;;;8.26;46.18
84667;BME280;74896;42.518;23.712;2024-03-22T07:23:47;92316.22;;;8.48;47.17
84667;BME280;74896;42.518;23.712;2024-03-22T07:26:12;92320.06;;;8.76;47.36
84667;BME280;74896;42.518;23.712;2024-03-22T07:28:38;92316.38;;;8.54;44.32
84667;BME280;74896;42.518;23.712;2024-03-22T07:31:03;92314.56;;;9.02;44.86
84667;BME280;74896;42.518;23.712;2024-03-22T07:33:30;92316.53;;;9.30;44.89
84667;BME280;74896;42.518;23.712;2024-03-22T07:35:56;92319.25;;;9.35;44.30
84667;BME280;74896;42.518;23.712;2024-03-22T07:38:26;92315.94;;;9.57;43.58
84667;BME280;74896;42.518;23.712;2024-03-22T07:40:51;92318.53;;;9.16;46.43
84667;BME280;74896;42.518;23.712;2024-03-22T07:43:17;92311.16;;;9.43;46.20
84667;BME280;74896;42.518;23.712;2024-03-22T07:45:42;92315.63;;;9.24;43.76
84667;BME280;74896;42.518;23.712;2024-03-22T07:48:07;92313.38;;;8.86;45.20
84667;BME280;74896;42.518;23.712;2024-03-22T07:50:33;92322.84;;;9.34;45.87
84667;BME280;74896;42.518;23.712;2024-03-22T07:52:58;92325.47;;;9.04;45.20
84667;BME280;74896;42.518;23.712;2024-03-22T07:55:25;92322.38;;;9.25;45.32
84667;BME280;74896;42.518;23.712;2024-03-22T07:57:50;92316.75;;;9.28;44.78
84667;BME280;74896;42.518;23.712;2024-03-22T08:00:16;92317.13;;;9.02;42.05
84667;BME280;74896;42.518;23.712;2024-03-22T08:02:41;92313.56;;;9.14;43.25
84667;BME280;74896;42.518;23.712;2024-03-22T08:05:07;92325.50;;;9.15;43.53
84667;BME280;74896;42.518;23.712;2024-03-22T08:07:32;92323.63;;;8.93;46.62
84667;BME280;74896;42.518;23.712;2024-03-22T08:09:58;92313.94;;;8.88;44.65
84667;BME280;74896;42.518;23.712;2024-03-22T08:12:24;92317.75;;;8.86;44.48
84667;BME280;74896;42.518;23.712;2024-03-22T08:14:49;92316.72;;;8.87;44.17
84667;BME280;74896;42.518;23.712;2024-03-22T08:17:15;92323.72;;;8.86;44.68
84667;BME280;74896;42.518;23.712;2024-03-22T08:19:41;92321.16;;;8.98;43.63
84667;BME280;74896;42.518;23.712;2024-03-22T08:22:07;92317.09;;;9.32;44.78
84667;BME280;74896;42.518;23.712;2024-03-22T08:24:32;92318.63;;;9.21;42.58
84667;BME280;74896;42.518;23.712;2024-03-22T08:26:59;92316.09;;;9.33;42.21
84667;BME280;74896;42.518;23.712;2024-03-22T08:29:24;92309.97;;;9.57;43.82
84667;BME280;74896;42.518;23.712;2024-03-22T08:31:49;92313.38;;;9.80;42.50
84667;BME280;74896;42.518;23.712;2024-03-22T08:34:15;92314.03;;;9.64;42.37
84667;BME280;74896;42.518;23.712;2024-03-22T08:36:40;92313.69;;;9.84;43.36
84667;BME280;74896;42.518;23.712;2024-03-22T08:39:06;92307.81;;;9.54;44.23
84667;BME280;74896;42.518;23.712;2024-03-22T08:41:33;92314.69;;;9.95;42.64
84667;BME280;74896;42.518;23.712;2024-03-22T08:43:58;92320.00;;;10.34;43.83
84667;BME280;74896;42.518;23.712;2024-03-22T08:46:24;92317.53;;;10.05;42.14
84667;BME280;74896;42.518;23.712;2024-03-22T08:48:51;92319.88;;;10.29;44.69
84667;BME280;74896;42.518;23.712;2024-03-22T08:51:17;92318.34;;;10.80;39.34
84667;BME280;74896;42.518;23.712;2024-03-22T08:53:42;92316.41;;;10.01;39.45
84667;BME280;74896;42.518;23.712;2024-03-22T08:56:08;92327.91;;;10.16;42.30
84667;BME280;74896;42.518;23.712;2024-03-22T08:58:33;92318.38;;;10.68;42.03
84667;BME280;74896;42.518;23.712;2024-03-22T09:00:58;92318.22;;;10.86;39.71
84667;BME280;74896;42.518;23.712;2024-03-22T09:03:24;92332.03;;;9.71;41.29
84667;BME280;74896;42.518;23.712;2024-03-22T09:05:52;92333.53;;;9.37;42.02
84667;BME280;74896;42.518;23.712;2024-03-22T09:08:19;92320.22;;;9.75;42.32
84667;BME280;74896;42.518;23.712;2024-03-22T09:10:46;92332.25;;;9.81;41.80
84667;BME280;74896;42.518;23.712;2024-03-22T09:13:12;92331.50;;;9.92;39.76
84667;BME280;74896;42.518;23.712;2024-03-22T09:15:38;92319.56;;;10.89;43.72
84667;BME280;74896;42.518;23.712;2024-03-22T09:18:04;92316.34;;;11.26;40.37
84667;BME280;74896;42.518;23.712;2024-03-22T09:20:30;92332.34;;;10.67;40.71
84667;BME280;74896;42.518;23.712;2024-03-22T09:22:55;92323.66;;;10.62;43.56
84667;BME280;74896;42.518;23.712;2024-03-22T09:25:23;92317.78;;;10.66;40.11
84667;BME280;74896;42.518;23.712;2024-03-22T09:27:48;92321.09;;;11.46;40.27
84667;BME280;74896;42.518;23.712;2024-03-22T09:30:14;92308.44;;;12.16;39.24
84667;BME280;74896;42.518;23.712;2024-03-22T09:32:40;92312.19;;;12.42;36.17
84667;BME280;74896;42.518;23.712;2024-03-22T09:35:06;92309.78;;;12.02;35.70
84667;BME280;74896;42.518;23.712;2024-03-22T09:37:31;92310.69;;;11.01;38.74
84667;BME280;74896;42.518;23.712;2024-03-22T09:39:56;92307.44;;;10.94;37.68
84667;BME280;74896;42.518;23.712;2024-03-22T09:42:23;92298.00;;;11.16;37.97
84667;BME280;74896;42.518;23.712;2024-03-22T09:44:50;92300.63;;;10.37;38.23
84667;BME280;74896;42.518;23.712;2024-03-22T09:47:17;92298.97;;;10.59;39.86
84667;BME280;74896;42.518;23.712;2024-03-22T09:49:43;92295.69;;;11.03;38.54
84667;BME280;74896;42.518;23.712;2024-03-22T09:52:13;92295.75;;;11.37;39.70
84667;BME280;74896;42.518;23.712;2024-03-22T09:54:41;92295.78;;;10.80;36.45
84667;BME280;74896;42.518;23.712;2024-03-22T09:57:09;92297.16;;;10.31;37.50
84667;BME280;74896;42.518;23.712;2024-03-22T09:59:35;92295.97;;;10.90;37.91
84667;BME280;74896;42.518;23.712;2024-03-22T10:02:02;92293.19;;;10.06;39.33
84667;BME280;74896;42.518;23.712;2024-03-22T10:04:30;92303.00;;;9.69;39.41
84667;BME280;74896;42.518;23.712;2024-03-22T10:06:56;92297.31;;;10.93;39.48
84667;BME280;74896;42.518;23.712;2024-03-22T10:09:28;92293.41;;;11.52;36.66
84667;BME280;74896;42.518;23.712;2024-03-22T10:11:55;92289.94;;;10.33;37.64
84667;BME280;74896;42.518;23.712;2024-03-22T10:14:21;92303.56;;;9.82;38.36
84667;BME280;74896;42.518;23.712;2024-03-22T10:16:46;92290.72;;;9.53;39.31
84667;BME280;74896;42.518;23.712;2024-03-22T10:19:12;92298.06;;;9.26;39.08
84667;BME280;74896;42.518;23.712;2024-03-22T10:21:37;92296.31;;;9.50;40.96
84667;BME280;74896;42.518;23.712;2024-03-22T10:24:02;92293.78;;;10.59;39.94
84667;BME280;74896;42.518;23.712;2024-03-22T10:26:28;92282.19;;;10.62;38.48
84667;BME280;74896;42.518;23.712;2024-03-22T10:28:53;92288.19;;;11.18;37.29
84667;BME280;74896;42.518;23.712;2024-03-22T10:31:19;92284.59;;;11.53;36.24
84667;BME280;74896;42.518;23.712;2024-03-22T10:33:45;92274.81;;;11.26;36.00
84667;BME280;74896;42.518;23.712;2024-03-22T10:36:11;92274.69;;;11.66;34.63
84667;BME280;74896;42.518;23.712;2024-03-22T10:38:38;92273.13;;;11.98;34.67
84667;BME280;74896;42.518;23.712;2024-03-22T10:41:04;92274.94;;;11.03;37.13
84667;BME280;74896;42.518;23.712;2024-03-22T10:43:30;92279.34;;;10.75;40.13
84667;BME280;74896;42.518;23.712;2024-03-22T10:46:02;92281.28;;;10.96;39.05
84667;BME280;74896;42.518;23.712;2024-03-22T10:48:31;92277.22;;;11.00;36.27
84667;BME280;74896;42.518;23.712;2024-03-22T10:51:00;92269.44;;;11.94;36.88
84667;BME280;74896;42.518;23.712;2024-03-22T10:53:26;92267.19;;;12.20;36.59
84667;BME280;74896;42.518;23.712;2024-03-22T10:55:53;92258.00;;;11.95;35.65
84667;BME280;74896;42.518;23.712;2024-03-22T10:58:24;92261.97;;;12.20;36.94
84667;BME280;74896;42.518;23.712;2024-03-22T11:00:54;92257.63;;;12.68;35.04
84667;BME280;74896;42.518;23.712;2024-03-22T11:03:20;92259.69;;;12.07;37.01
84667;BME280;74896;42.518;23.712;2024-03-22T11:05:47;92265.72;;;10.68;35.96
84667;BME280;74896;42.518;23.712;2024-03-22T11:08:13;92256.91;;;10.40;38.12
84667;BME280;74896;42.518;23.712;2024-03-22T11:10:39;92253.56;;;10.17;37.20
84667;BME280;74896;42.518;23.712;2024-03-22T11:13:06;92251.25;;;10.43;39.60
84667;BME280;74896;42.518;23.712;2024-03-22T11:15:33;92246.06;;;10.43;37.99
84667;BME280;74896;42.518;23.712;2024-03-22T11:17:59;92243.06;;;10.91;39.26
84667;BME280;74896;42.518;23.712;2024-03-22T11:20:25;92249.50;;;10.21;37.23
84667;BME280;74896;42.518;23.712;2024-03-22T11:22:54;92240.31;;;9.55;38.81
84667;BME280;74896;42.518;23.712;2024-03-22T11:25:19;92243.06;;;9.31;39.73
84667;BME280;74896;42.518;23.712;2024-03-22T11:27:48;92234.13;;;10.42;39.12
84667;BME280;74896;42.518;23.712;2024-03-22T11:30:15;92237.22;;;11.46;37.68
84667;BME280;74896;42.518;23.712;2024-03-22T11:32:40;92232.19;;;11.89;34.35
84667;BME280;74896;42.518;23.712;2024-03-22T11:35:11;92226.19;;;11.88;35.32
84667;BME280;74896;42.518;23.712;2024-03-22T11:37:38;92229.44;;;12.17;36.96
84667;BME280;74896;42.518;23.712;2024-03-22T11:40:04;92233.72;;;12.07;37.76
84667;BME280;74896;42.518;23.712;2024-03-22T11:42:33;92225.56;;;10.70;36.26
84667;BME280;74896;42.518;23.712;2024-03-22T11:44:59;92236.59;;;10.49;36.37
84667;BME280;74896;42.518;23.712;2024-03-22T11:47:25;92230.81;;;9.96;38.26
84667;BME280;74896;42.518;23.712;2024-03-22T11:49:50;92227.56;;;9.88;38.46
84667;BME280;74896;42.518;23.712;2024-03-22T11:52:16;92227.63;;;10.28;35.69
84667;BME280;74896;42.518;23.712;2024-03-22T11:54:41;92219.09;;;10.84;34.67
84667;BME280;74896;42.518;23.712;2024-03-22T11:57:09;92215.66;;;11.12;37.69
84667;BME280;74896;42.518;23.712;2024-03-22T11:59:34;92217.31;;;11.18;37.96
84667;BME280;74896;42.518;23.712;2024-03-22T12:01:59;92222.75;;;11.50;37.22
84667;BME280;74896;42.518;23.712;2024-03-22T12:04:25;92212.09;;;11.51;37.18
84667;BME280;74896;42.518;23.712;2024-03-22T12:06:51;92223.75;;;10.42;36.61
84667;BME280;74896;42.518;23.712;2024-03-22T12:09:18;92225.53;;;9.90;36.50
84667;BME280;74896;42.518;23.712;2024-03-22T12:11:43;92213.78;;;10.00;36.90
84667;BME280;74896;42.518;23.712;2024-03-22T12:14:09;92213.53;;;10.36;37.66
84667;BME280;74896;42.518;23.712;2024-03-22T12:16:34;92214.47;;;10.58;37.19
84667;BME280;74896;42.518;23.712;2024-03-22T12:18:59;92204.44;;;10.22;36.64
84667;BME280;74896;42.518;23.712;2024-03-22T12:21:25;92207.94;;;9.93;37.36
84667;BME280;74896;42.518;23.712;2024-03-22T12:23:50;92218.06;;;10.29;36.17
84667;BME280;74896;42.518;23.712;2024-03-22T12:26:16;92211.22;;;9.88;37.10
84667;BME280;74896;42.518;23.712;2024-03-22T12:28:42;92212.44;;;10.20;36.73
84667;BME280;74896;42.518;23.712;2024-03-22T12:31:08;92199.41;;;10.15;36.55
84667;BME280;74896;42.518;23.712;2024-03-22T12:33:35;92198.59;;;10.15;34.43
84667;BME280;74896;42.518;23.712;2024-03-22T12:36:01;92194.00;;;10.45;34.21
84667;BME280;74896;42.518;23.712;2024-03-22T12:38:26;92193.03;;;10.63;33.74
84667;BME280;74896;42.518;23.712;2024-03-22T12:40:52;92186.69;;;10.87;31.67
84667;BME280;74896;42.518;23.712;2024-03-22T12:43:17;92186.06;;;10.96;32.68
84667;BME280;74896;42.518;23.712;2024-03-22T12:45:43;92175.47;;;11.31;31.92
84667;BME280;74896;42.518;23.712;2024-03-22T12:48:08;92175.38;;;11.26;31.14